Time;durP1;ratioP1;P1;durP2;ratioP2;P2;SDS_P1;SDS_P2;PMS_P1;PMS_P2;Temp;Humidity;BMP_temperature;BMP_pressure;BME280_temperature;BME280_humidity;BME280_pressure;Samples;Min_cycle;Max_cycle;Signal;HPM_P1;HPM_P2
2022/11/22 00:04:57;;;;;;;7.72;4.30;;;;;;;5.48;100.00;98860.22;10412513;28;20050;-78
2022/11/22 00:10:00;;;;;;;14.02;4.68;;;;;;;5.51;100.00;98854.91;10412101;28;20076;-76
2022/11/22 00:15:03;;;;;;;9.13;4.45;;;;;;;5.52;100.00;98842.81;10412542;28;20045;-75
2022/11/22 00:20:09;;;;;;;14.35;3.58;;;;;;;5.52;100.00;98840.22;10409345;28;20053;-74
2022/11/22 00:25:13;;;;;;;8.27;3.33;;;;;;;5.60;100.00;98845.81;10412032;28;20102;-76
2022/11/22 00:30:15;;;;;;;78.70;36.10;;;;;;;5.61;100.00;98850.06;10411702;28;20072;-77
2022/11/22 00:35:17;;;;;;;7.80;2.42;;;;;;;5.54;100.00;98853.91;10412011;28;20054;-75
2022/11/22 00:40:20;;;;;;;6.45;3.83;;;;;;;5.46;100.00;98861.22;10411571;28;20467;-74
2022/11/22 00:45:22;;;;;;;10.18;3.90;;;;;;;5.36;100.00;98850.53;10411302;28;20067;-75
2022/11/22 00:50:25;;;;;;;10.02;3.70;;;;;;;5.22;100.00;98853.84;10409285;28;20546;-76
2022/11/22 00:55:28;;;;;;;5.13;3.15;;;;;;;5.13;100.00;98855.16;10411160;28;20104;-75
2022/11/22 01:00:30;;;;;;;7.88;3.60;;;;;;;4.99;100.00;98846.38;10411110;28;20057;-78
2022/11/22 01:05:31;;;;;;;7.53;3.10;;;;;;;4.91;100.00;98843.34;10411215;28;20055;-76
2022/11/22 01:10:36;;;;;;;4.32;2.47;;;;;;;4.92;100.00;98851.94;10410854;28;20308;-73
2022/11/22 01:15:38;;;;;;;10.52;3.88;;;;;;;4.81;100.00;98850.72;10417838;28;20411;-73
2022/11/22 01:20:40;;;;;;;9.02;2.55;;;;;;;4.78;100.00;98866.38;10416185;28;20443;-75
2022/11/22 01:25:44;;;;;;;7.53;3.00;;;;;;;4.70;100.00;98861.63;10417866;28;20045;-74
2022/11/22 01:30:51;;;;;;;4.20;2.85;;;;;;;4.71;100.00;98859.84;10417347;28;20045;-76
2022/11/22 01:35:53;;;;;;;9.82;2.90;;;;;;;4.61;100.00;98865.50;10417489;28;20048;-77
2022/11/22 01:40:57;;;;;;;4.38;1.95;;;;;;;4.68;100.00;98857.44;10417502;28;20152;-77
2022/11/22 01:46:02;;;;;;;13.60;2.92;;;;;;;4.66;100.00;98878.19;10417185;28;20111;-78
2022/11/22 01:51:17;;;;;;;2.25;1.92;;;;;;;4.75;100.00;98884.63;10414503;28;20116;-76
2022/11/22 01:56:22;;;;;;;9.63;2.30;;;;;;;4.72;100.00;98882.22;10416536;28;20153;-73
2022/11/22 02:01:24;;;;;;;10.20;3.05;;;;;;;4.68;100.00;98891.03;10416942;28;20052;-76
2022/11/22 02:06:37;;;;;;;3.40;2.20;;;;;;;4.76;100.00;98883.75;10416532;28;20087;-74
2022/11/22 02:11:48;;;;;;;9.70;2.90;;;;;;;4.72;100.00;98883.03;10416248;28;20053;-76
2022/11/22 02:16:49;;;;;;;13.48;3.10;;;;;;;4.69;100.00;98895.28;10415800;28;20264;-69
2022/11/22 02:22:01;;;;;;;15.03;3.63;;;;;;;4.64;100.00;98891.19;10413351;28;20111;-70
2022/11/22 02:27:04;;;;;;;9.05;3.38;;;;;;;4.68;100.00;98901.38;10415179;28;20396;-73
2022/11/22 02:32:07;;;;;;;13.82;3.10;;;;;;;4.64;100.00;98901.50;10416127;28;20099;-75
2022/11/22 02:37:13;;;;;;;16.88;2.70;;;;;;;4.62;100.00;98903.31;10415610;28;20087;-75
2022/11/22 02:42:17;;;;;;;12.63;2.75;;;;;;;4.61;100.00;98901.66;10414916;28;20120;-75
2022/11/22 02:47:19;;;;;;;14.40;3.13;;;;;;;4.57;100.00;98907.88;10415245;28;20104;-72
2022/11/22 02:52:21;;;;;;;13.90;3.30;;;;;;;4.48;100.00;98918.69;10412888;28;20049;-70
2022/11/22 02:57:24;;;;;;;8.35;2.63;;;;;;;4.49;100.00;98915.19;10414916;28;20342;-76
2022/11/22 03:02:25;;;;;;;0.88;0.70;;;;;;;4.49;100.00;98917.75;10414690;28;20308;-73
2022/11/22 03:07:27;;;;;;;9.63;2.63;;;;;;;4.42;100.00;98912.06;10414230;28;20049;-73
2022/11/22 03:12:30;;;;;;;9.48;2.58;;;;;;;4.35;100.00;98911.50;10414588;28;20122;-76
2022/11/22 03:17:32;;;;;;;11.88;2.08;;;;;;;4.33;100.00;98928.81;10414044;28;20062;-72
2022/11/22 03:22:34;;;;;;;14.90;3.17;;;;;;;4.22;100.00;98938.81;10411580;28;20049;-70
2022/11/22 03:27:37;;;;;;;8.15;2.63;;;;;;;4.11;100.00;98937.56;10413562;28;20351;-71
2022/11/22 03:32:40;;;;;;;8.65;2.60;;;;;;;4.08;100.00;98937.69;10413304;28;20108;-73
2022/11/22 03:37:42;;;;;;;9.60;3.30;;;;;;;3.96;100.00;98940.84;10412558;28;20060;-71
2022/11/22 03:42:45;;;;;;;11.00;2.30;;;;;;;3.97;100.00;98939.97;10413770;28;20061;-71
2022/11/22 03:47:46;;;;;;;9.70;2.35;;;;;;;3.84;100.00;98937.91;10415966;28;20311;-74
2022/11/22 03:52:48;;;;;;;8.67;2.50;;;;;;;3.73;100.00;98943.56;10412958;28;20070;-71
2022/11/22 03:57:51;;;;;;;15.87;2.30;;;;;;;3.65;100.00;98944.78;10412529;28;20344;-71
2022/11/22 04:02:53;;;;;;;14.13;2.55;;;;;;;3.55;100.00;98942.63;10412242;28;20373;-73
2022/11/22 04:07:56;;;;;;;8.48;2.65;;;;;;;3.54;100.00;98951.28;10412545;28;20049;-74
2022/11/22 04:13:00;;;;;;;16.40;3.03;;;;;;;3.43;100.00;98945.75;10412358;28;20070;-75
2022/11/22 04:18:01;;;;;;;14.50;2.28;;;;;;;3.34;100.00;98960.72;10412067;28;20071;-71
2022/11/22 04:23:08;;;;;;;8.07;2.30;;;;;;;3.31;100.00;98976.31;10409044;28;20103;-73
2022/11/22 04:28:14;;;;;;;8.90;2.92;;;;;;;3.29;100.00;98979.88;10411133;28;20341;-75
2022/11/22 04:33:17;;;;;;;14.32;1.75;;;;;;;3.30;100.00;98972.06;10411253;28;20049;-74
2022/11/22 04:38:19;;;;;;;3.90;1.58;;;;;;;3.32;100.00;98961.69;10411569;28;20049;-77
2022/11/22 04:48:44;;;;;;;8.57;2.08;;;;;;;3.21;100.00;98975.00;10412829;28;20416;-76
2022/11/22 04:53:56;;;;;;;6.47;2.13;;;;;;;3.14;100.00;98979.59;10419782;28;20501;-77
2022/11/22 04:58:59;;;;;;;9.25;2.47;;;;;;;3.20;100.00;98981.09;10419355;28;20098;-73
2022/11/22 05:04:01;;;;;;;6.38;2.13;;;;;;;3.16;100.00;98982.13;10419407;28;20057;-72
2022/11/22 05:09:03;;;;;;;2.77;1.27;;;;;;;3.16;100.00;98987.28;10418565;28;20045;-73
2022/11/22 05:14:09;;;;;;;4.63;2.38;;;;;;;3.04;100.00;98986.88;10418701;28;20343;-72
2022/11/22 05:19:11;;;;;;;3.97;1.80;;;;;;;2.97;100.00;98993.16;10416668;28;20061;-74
2022/11/22 05:24:13;;;;;;;8.60;1.63;;;;;;;2.94;100.00;98988.13;10418171;28;20060;-73
2022/11/22 05:29:16;;;;;;;9.48;1.60;;;;;;;3.01;100.00;98979.25;10418177;28;20083;-74
2022/11/22 05:34:17;;;;;;;4.63;1.63;;;;;;;3.00;100.00;98972.44;10418292;28;20502;-73
2022/11/22 05:39:19;;;;;;;6.00;2.22;;;;;;;2.91;100.00;98970.25;10417813;28;20058;-71
2022/11/22 05:44:23;;;;;;;2.70;1.10;;;;;;;2.85;100.00;98973.06;10417473;28;20684;-73
2022/11/22 05:49:24;;;;;;;8.73;3.72;;;;;;;2.81;100.00;98972.34;10414942;28;20045;-74
2022/11/22 05:54:26;;;;;;;2.87;1.00;;;;;;;2.92;100.00;98983.06;10417211;28;20566;-73
2022/11/22 05:59:29;;;;;;;8.37;1.60;;;;;;;2.87;100.00;98977.25;10415997;28;20138;-71
2022/11/22 06:04:31;;;;;;;12.23;1.70;;;;;;;2.85;100.00;98968.75;10417080;28;20315;-75
2022/11/22 06:09:33;;;;;;;2.57;1.93;;;;;;;2.74;100.00;98976.91;10416816;28;20079;-74
2022/11/22 06:14:36;;;;;;;0.80;0.80;;;;;;;2.86;100.00;98985.03;10416274;28;20144;-75
2022/11/22 06:19:38;;;;;;;4.15;1.65;;;;;;;2.78;100.00;98975.91;10414297;28;20058;-73
2022/11/22 06:24:41;;;;;;;9.65;2.28;;;;;;;2.66;100.00;98972.06;10415942;28;20061;-74
2022/11/22 06:29:44;;;;;;;10.50;2.10;;;;;;;2.75;100.00;98986.31;10416051;28;20080;-74
2022/11/22 06:34:46;;;;;;;6.28;2.22;;;;;;;2.74;100.00;98979.47;10415982;28;20059;-74
2022/11/22 06:39:49;;;;;;;5.80;2.80;;;;;;;2.64;100.00;98993.63;10415524;28;20150;-73
2022/11/22 06:44:52;;;;;;;4.65;1.77;;;;;;;2.66;100.00;98984.09;10415917;28;20141;-77
2022/11/22 06:49:53;;;;;;;5.18;1.65;;;;;;;2.64;100.00;98996.22;10413563;28;20109;-72
2022/11/22 06:54:55;;;;;;;1.00;0.97;;;;;;;2.74;100.00;98992.34;10415012;28;20060;-73
2022/11/22 06:59:58;;;;;;;4.83;2.43;;;;;;;2.77;100.00;99006.88;10414474;28;20086;-72
2022/11/22 07:04:59;;;;;;;2.50;1.33;;;;;;;2.79;100.00;99011.06;10414586;28;20304;-70
2022/11/22 07:10:01;;;;;;;1.73;1.60;;;;;;;2.94;100.00;99024.22;10414315;28;20084;-74
2022/11/22 07:15:06;;;;;;;6.67;2.13;;;;;;;3.04;100.00;99035.84;10414050;28;20356;-71
2022/11/22 07:20:09;;;;;;;5.65;2.03;;;;;;;3.08;100.00;99027.09;10411741;28;20060;-72
2022/11/22 07:25:11;;;;;;;7.53;1.95;;;;;;;3.20;100.00;99025.75;10414271;28;20581;-75
2022/11/22 07:30:15;;;;;;;5.23;2.40;;;;;;;3.25;100.00;99028.13;10413655;28;20085;-76
2022/11/22 07:35:17;;;;;;;5.50;2.38;;;;;;;3.29;100.00;99031.44;10413177;28;20049;-72
2022/11/22 07:40:18;;;;;;;8.73;2.63;;;;;;;3.36;100.00;99040.59;10413381;28;20055;-73
2022/11/22 07:45:22;;;;;;;7.57;1.73;;;;;;;3.39;100.00;99034.47;10413437;28;20059;-74
2022/11/22 07:50:23;;;;;;;5.40;1.80;;;;;;;3.47;100.00;99034.97;10410562;28;20593;-72
2022/11/22 07:55:25;;;;;;;12.67;2.40;;;;;;;3.56;100.00;99032.00;10411840;28;20504;-73
2022/11/22 08:00:29;;;;;;;4.80;2.45;;;;;;;3.63;100.00;99037.75;10410804;28;20338;-74
2022/11/22 08:05:31;;;;;;;6.55;2.20;;;;;;;3.69;100.00;99042.66;10411055;28;20285;-72
2022/11/22 08:10:33;;;;;;;6.77;1.67;;;;;;;3.76;100.00;99035.47;10411214;28;20041;-71
2022/11/22 08:15:36;;;;;;;16.15;3.00;;;;;;;3.88;100.00;99039.28;10410762;28;20300;-72
2022/11/22 08:20:39;;;;;;;8.48;2.05;;;;;;;3.92;100.00;99042.53;10408510;28;20049;-73
2022/11/22 08:25:41;;;;;;;7.55;2.30;;;;;;;3.94;100.00;99038.16;10411013;28;20057;-71
2022/11/22 08:30:45;;;;;;;7.80;2.37;;;;;;;4.03;100.00;99042.91;10406436;28;20049;-72
2022/11/22 08:35:49;;;;;;;5.05;1.73;;;;;;;4.10;100.00;99051.22;10409231;28;20366;-75
2022/11/22 08:40:52;;;;;;;10.40;1.90;;;;;;;4.17;100.00;99052.63;10411961;28;20056;-76
2022/11/22 08:45:56;;;;;;;;;;;;;;;4.26;100.00;99056.56;10411052;28;20053;-71
2022/11/22 08:51:00;;;;;;;6.05;1.98;;;;;;;4.37;100.00;99054.31;10409133;28;19952;-69
2022/11/22 08:56:04;;;;;;;8.10;2.15;;;;;;;4.46;100.00;99060.81;10411028;28;20053;-72
2022/11/22 09:01:10;;;;;;;10.05;2.13;;;;;;;4.52;100.00;99057.13;10411825;28;20559;-73
2022/11/22 09:06:14;;;;;;;6.78;2.33;;;;;;;4.58;100.00;99056.00;10411069;28;20056;-69
2022/11/22 09:11:19;;;;;;;3.35;1.20;;;;;;;4.58;100.00;99051.66;10410490;28;20483;-76
2022/11/22 09:16:22;;;;;;;8.43;2.70;;;;;;;4.70;100.00;99059.75;10411610;28;20049;-73
2022/11/22 09:21:24;;;;;;;12.27;2.60;;;;;;;4.83;100.00;99071.19;10411113;28;20041;-74
2022/11/22 09:26:30;;;;;;;3.35;1.67;;;;;;;4.93;100.00;99066.41;10413112;28;20084;-73
2022/11/22 09:31:33;;;;;;;2.65;1.10;;;;;;;4.97;100.00;99067.97;10409737;28;20050;-72
2022/11/22 09:36:37;;;;;;;2.53;1.85;;;;;;;5.12;100.00;99065.53;10415982;28;20049;-71
2022/11/22 09:42:11;;;;;;;7.40;2.20;;;;;;;5.37;100.00;99064.34;10419281;28;20054;-72
2022/11/22 09:47:32;;;;;;;4.00;1.63;;;;;;;5.43;100.00;99063.22;10384319;28;20459;-69
2022/11/22 09:52:43;;;;;;;1.52;0.95;;;;;;;5.32;100.00;99064.56;10404211;28;20072;-72
2022/11/22 09:57:49;;;;;;;5.47;2.00;;;;;;;5.29;100.00;99069.88;10417998;28;20053;-70
2022/11/22 10:03:01;;;;;;;3.17;1.60;;;;;;;5.22;100.00;99065.94;10417227;28;20362;-72
2022/11/22 10:08:34;;;;;;;5.18;1.80;;;;;;;5.14;100.00;99085.22;10417608;28;20114;-70
2022/11/22 10:13:47;;;;;;;3.30;1.60;;;;;;;5.12;100.00;99081.91;10413472;28;20108;-68
2022/11/22 10:19:00;;;;;;;0.80;0.80;;;;;;;5.07;100.00;99078.72;10415049;28;20099;-70
2022/11/22 10:24:02;;;;;;;3.28;1.42;;;;;;;5.08;100.00;99064.84;10403280;28;20053;-72
2022/11/22 10:29:24;;;;;;;4.35;2.33;;;;;;;5.08;100.00;99064.84;10417457;28;20482;-70
2022/11/22 10:34:46;;;;;;;10.88;1.98;;;;;;;5.12;100.00;99061.22;10396034;28;20103;-69
2022/11/22 10:40:01;;;;;;;;;;;;;;;5.21;100.00;99051.31;10417507;28;20103;-72
2022/11/22 10:45:16;;;;;;;6.50;2.22;;;;;;;5.31;100.00;99049.13;10375778;28;19921;-68
2022/11/22 10:50:26;;;;;;;4.60;2.15;;;;;;;5.46;100.00;99047.50;10373180;28;20046;-70
2022/11/22 10:55:49;;;;;;;2.53;1.15;;;;;;;5.65;100.00;99044.84;10411132;28;20107;-71
2022/11/22 11:01:04;;;;;;;2.97;1.40;;;;;;;5.62;100.00;99043.28;10415446;28;20051;-68
2022/11/22 11:06:18;;;;;;;1.75;1.25;;;;;;;5.64;100.00;99045.75;10415067;28;20042;-68
2022/11/22 11:11:24;;;;;;;1.95;1.50;;;;;;;5.69;100.00;99032.59;10414799;28;20413;-69
2022/11/22 11:16:31;;;;;;;1.38;1.27;;;;;;;5.67;100.00;99022.31;10415614;28;20103;-68
2022/11/22 11:21:36;;;;;;;8.18;1.60;;;;;;;5.84;100.00;99021.44;10412943;28;20049;-69
2022/11/22 11:26:40;;;;;;;6.22;1.70;;;;;;;5.85;100.00;99024.88;10415468;28;20063;-69
2022/11/22 11:31:44;;;;;;;3.40;1.48;;;;;;;5.86;100.00;99013.59;10414717;28;20050;-70
2022/11/22 11:36:47;;;;;;;2.33;0.80;;;;;;;5.93;100.00;99004.59;10413269;28;20057;-72
2022/11/22 11:41:49;;;;;;;0.85;0.85;;;;;;;6.03;100.00;99002.34;10414838;28;20057;-70
2022/11/22 11:46:51;;;;;;;;;;;;;;;6.01;100.00;99010.19;10414891;28;20515;-70
2022/11/22 11:51:58;;;;;;;3.40;1.05;;;;;;;6.08;100.00;99002.97;10412407;28;19925;-77
2022/11/22 11:57:03;;;;;;;2.78;1.30;;;;;;;6.12;100.00;99006.25;10414335;28;20057;-77
2022/11/22 12:02:14;;;;;;;1.05;0.98;;;;;;;6.18;100.00;99011.94;10415022;28;20072;-75
2022/11/22 12:07:23;;;;;;;1.60;0.93;;;;;;;6.31;100.00;99008.69;10415127;28;20095;-76
2022/11/22 12:12:42;;;;;;;1.05;0.80;;;;;;;6.28;100.00;99006.25;10415242;28;20053;-78
2022/11/22 12:17:54;;;;;;;2.50;0.77;;;;;;;6.34;100.00;99002.47;10414597;28;20494;-75
2022/11/22 12:23:16;;;;;;;1.98;1.50;;;;;;;6.33;100.00;99001.63;10412831;28;20485;-76
2022/11/22 12:28:21;;;;;;;2.37;0.93;;;;;;;6.37;100.00;98995.38;10414306;28;20762;-76
2022/11/22 12:33:32;;;;;;;2.33;0.82;;;;;;;6.47;100.00;98997.47;10414002;28;20304;-73
2022/11/22 12:38:43;;;;;;;0.60;0.60;;;;;;;6.46;100.00;98995.81;10412976;28;20390;-77
2022/11/22 12:43:52;;;;;;;2.67;0.70;;;;;;;6.49;100.00;98993.03;10414249;28;20092;-75
2022/11/22 12:49:02;;;;;;;0.60;0.60;;;;;;;6.46;100.00;99003.59;10412526;28;20090;-75
2022/11/22 12:54:14;;;;;;;1.73;0.60;;;;;;;6.41;100.00;99004.69;10415007;28;20054;-79
2022/11/22 12:59:31;;;;;;;1.45;0.43;;;;;;;6.40;100.00;98987.44;10413923;28;20130;-76
2022/11/22 13:04:49;;;;;;;0.90;0.85;;;;;;;6.48;100.00;98984.44;10414728;28;20111;-78
2022/11/22 13:10:05;;;;;;;1.48;1.02;;;;;;;6.44;100.00;98983.75;10418046;28;20140;-77
2022/11/22 13:15:13;;;;;;;1.00;0.90;;;;;;;6.50;100.00;98976.59;10422139;28;20099;-73
2022/11/22 13:20:20;;;;;;;2.05;1.00;;;;;;;6.50;100.00;98977.41;10419819;28;20046;-79
2022/11/22 13:25:58;;;;;;;0.60;0.60;;;;;;;6.50;100.00;98972.22;10421644;28;20054;-79
2022/11/22 13:31:18;;;;;;;1.58;0.80;;;;;;;6.52;100.00;98972.13;10420854;28;20079;-77
2022/11/22 13:36:46;;;;;;;4.93;0.82;;;;;;;6.59;100.00;98980.41;10420390;28;20053;-77
2022/11/22 13:42:05;;;;;;;0.65;0.65;;;;;;;6.61;100.00;98984.59;10420585;28;20057;-74
2022/11/22 13:47:38;;;;;;;5.45;1.25;;;;;;;6.62;100.00;98996.63;10420853;28;20440;-79
2022/11/22 13:52:53;;;;;;;0.73;0.73;;;;;;;6.58;100.00;98995.13;10419198;28;20125;-76
2022/11/22 13:57:56;;;;;;;0.63;0.60;;;;;;;6.49;100.00;99003.41;10420052;28;20053;-77
2022/11/22 14:03:36;;;;;;;0.57;0.57;;;;;;;6.41;100.00;98994.31;10420587;28;20115;-72
2022/11/22 14:08:40;;;;;;;0.80;0.80;;;;;;;6.35;100.00;98989.44;10419079;28;20490;-75
2022/11/22 14:13:58;;;;;;;2.42;0.93;;;;;;;6.36;100.00;98985.94;10419635;28;20053;-75
2022/11/22 14:19:20;;;;;;;3.63;1.02;;;;;;;6.40;100.00;98979.66;10416861;28;20103;-75
2022/11/22 14:24:41;;;;;;;0.70;0.70;;;;;;;6.41;100.00;98978.75;10418672;28;20075;-74
2022/11/22 14:30:11;;;;;;;0.70;0.70;;;;;;;6.46;100.00;98980.25;10418566;28;20081;-73
2022/11/22 14:35:25;;;;;;;1.85;1.00;;;;;;;6.49;100.00;98969.69;10418148;28;20141;-73
2022/11/22 14:40:35;;;;;;;0.70;0.70;;;;;;;6.57;100.00;98980.50;10418224;28;20502;-74
2022/11/22 14:45:44;;;;;;;1.15;0.80;;;;;;;6.49;100.00;98969.69;10418004;28;20547;-75
2022/11/22 14:50:54;;;;;;;2.20;0.82;;;;;;;6.42;100.00;98971.81;10412158;28;20421;-77
2022/11/22 14:56:05;;;;;;;0.45;0.45;;;;;;;6.39;100.00;98984.91;10417403;28;20127;-75
2022/11/22 15:01:53;;;;;;;0.47;0.47;;;;;;;6.32;100.00;98989.63;10392656;28;20065;-75
2022/11/22 15:07:14;;;;;;;1.05;0.93;;;;;;;6.25;100.00;99003.81;10416044;28;20061;-78
2022/11/22 15:12:43;;;;;;;0.93;0.80;;;;;;;6.08;100.00;99008.16;10416439;28;20067;-74
2022/11/22 15:17:50;;;;;;;0.90;0.90;;;;;;;5.89;100.00;99003.91;10417353;28;20050;-78
2022/11/22 15:22:52;;;;;;;0.85;0.85;;;;;;;5.78;100.00;99001.03;10415354;28;20099;-77
2022/11/22 15:27:54;;;;;;;0.98;0.98;;;;;;;5.73;100.00;98998.72;10419967;28;20110;-71
2022/11/22 15:32:59;;;;;;;1.48;1.38;;;;;;;5.72;100.00;99016.91;10430892;28;20076;-72
2022/11/22 15:38:07;;;;;;;1.20;1.20;;;;;;;5.73;100.00;99021.16;10419820;28;20407;-74
2022/11/22 15:43:16;;;;;;;1.73;1.63;;;;;;;5.75;100.00;99002.03;10416035;28;20059;-77
2022/11/22 15:48:29;;;;;;;1.80;1.70;;;;;;;5.80;100.00;99013.00;10415437;28;20106;-75
2022/11/22 15:53:32;;;;;;;1.90;1.80;;;;;;;5.84;100.00;99011.09;10413170;28;20129;-72
2022/11/22 15:58:36;;;;;;;1.98;1.85;;;;;;;5.85;100.00;99007.56;10414409;28;20095;-70
2022/11/22 16:03:42;;;;;;;2.03;1.80;;;;;;;5.87;100.00;99007.50;10414473;28;20107;-68
2022/11/22 16:08:48;;;;;;;2.95;1.75;;;;;;;5.91;100.00;99017.63;10409881;28;20049;-71
2022/11/22 16:13:50;;;;;;;2.25;2.05;;;;;;;5.95;100.00;99014.88;10413972;28;20115;-72
2022/11/22 16:19:20;;;;;;;2.58;2.38;;;;;;;6.03;100.00;99023.06;10411067;28;20049;-68
2022/11/22 16:24:27;;;;;;;3.75;2.50;;;;;;;6.09;100.00;99030.53;10415739;28;20056;-67
2022/11/22 16:29:34;;;;;;;2.70;2.20;;;;;;;6.09;100.00;99020.16;10415321;28;20103;-69
2022/11/22 16:34:37;;;;;;;3.13;2.25;;;;;;;6.13;100.00;99037.22;10412328;28;20065;-68
2022/11/22 16:39:39;;;;;;;2.20;2.10;;;;;;;6.17;100.00;99033.53;10412169;28;20057;-67
2022/11/22 16:44:41;;;;;;;2.40;2.17;;;;;;;6.24;100.00;99041.00;10416334;28;20560;-69
2022/11/22 16:49:45;;;;;;;2.10;1.90;;;;;;;6.26;100.00;99045.19;10417993;28;20049;-67
2022/11/22 16:54:46;;;;;;;3.90;2.50;;;;;;;6.34;100.00;99043.94;10420074;28;20061;-67
2022/11/22 16:59:48;;;;;;;2.60;2.10;;;;;;;6.37;100.00;99052.38;10419482;28;20551;-67
2022/11/22 17:04:53;;;;;;;6.30;2.33;;;;;;;6.40;100.00;99044.44;10419923;28;20107;-69
2022/11/22 17:10:02;;;;;;;2.08;1.83;;;;;;;6.48;100.00;99063.94;10419106;28;20049;-70
2022/11/22 17:15:05;;;;;;;2.17;2.08;;;;;;;6.50;100.00;99051.75;10419482;28;20062;-70
2022/11/22 17:20:10;;;;;;;1.83;1.73;;;;;;;6.55;100.00;99067.88;10416644;28;20053;-71
2022/11/22 17:25:16;;;;;;;2.20;2.00;;;;;;;6.57;100.00;99066.84;10418468;28;20416;-68
2022/11/22 17:30:19;;;;;;;5.05;1.80;;;;;;;6.56;100.00;99062.59;10418748;28;20041;-69
2022/11/22 17:35:22;;;;;;;2.25;1.98;;;;;;;6.60;100.00;99080.59;10418284;28;20072;-67
2022/11/22 17:40:23;;;;;;;1.80;1.50;;;;;;;6.60;100.00;99078.81;10418328;28;20053;-70
2022/11/22 17:45:25;;;;;;;5.05;2.50;;;;;;;6.54;100.00;99081.75;10417968;28;20072;-70
2022/11/22 17:50:28;;;;;;;1.92;1.83;;;;;;;6.48;100.00;99084.66;10415601;28;20041;-68
2022/11/22 17:55:30;;;;;;;7.25;1.80;;;;;;;6.45;100.00;99077.88;10416827;28;20079;-67
2022/11/22 18:00:33;;;;;;;3.17;1.90;;;;;;;6.52;100.00;99078.38;10417385;28;20494;-68
2022/11/22 18:05:36;;;;;;;3.38;2.00;;;;;;;6.53;100.00;99072.28;10414404;28;20107;-67
2022/11/22 18:10:39;;;;;;;4.57;2.42;;;;;;;6.53;100.00;99083.50;10416166;28;20041;-68
2022/11/22 18:15:41;;;;;;;5.07;2.53;;;;;;;6.61;100.00;99088.28;10417228;28;20562;-70
2022/11/22 18:20:48;;;;;;;5.22;2.20;;;;;;;6.51;100.00;99093.13;10407340;28;20563;-69
2022/11/22 18:25:51;;;;;;;5.60;2.13;;;;;;;6.42;100.00;99094.44;10416586;28;20068;-71
2022/11/22 18:30:54;;;;;;;6.38;2.55;;;;;;;6.39;100.00;99089.41;10416092;28;20378;-72
2022/11/22 18:36:03;;;;;;;6.43;2.60;;;;;;;6.40;100.00;99103.22;10416196;28;20371;-72
2022/11/22 18:41:05;;;;;;;3.97;1.70;;;;;;;6.38;100.00;99102.44;10416136;28;20079;-70
2022/11/22 18:46:07;;;;;;;;;;;;;;;6.35;100.00;99102.59;10416304;28;20126;-69
2022/11/22 18:51:10;;;;;;;7.70;2.67;;;;;;;6.33;100.00;99096.69;10414537;28;19925;-73
2022/11/22 18:56:15;;;;;;;5.70;2.70;;;;;;;6.31;100.00;99095.03;10415729;28;20460;-76
2022/11/22 19:01:23;;;;;;;4.18;2.50;;;;;;;6.34;100.00;99100.94;10416013;28;20148;-76
2022/11/22 19:06:26;;;;;;;7.35;3.40;;;;;;;6.31;100.00;99101.94;10415488;28;20053;-72
2022/11/22 19:11:29;;;;;;;9.63;3.03;;;;;;;6.29;100.00;99101.16;10414949;28;20153;-73
2022/11/22 19:16:31;;;;;;;10.27;3.10;;;;;;;6.32;100.00;99113.97;10416022;28;20144;-79
2022/11/22 19:21:34;;;;;;;6.60;3.20;;;;;;;6.37;100.00;99111.16;10413764;28;20100;-76
2022/11/22 19:26:36;;;;;;;6.05;2.97;;;;;;;6.39;100.00;99115.31;10414806;28;20053;-76
2022/11/22 19:31:37;;;;;;;9.43;3.45;;;;;;;6.45;100.00;99111.56;10415152;28;20049;-76
2022/11/22 19:36:42;;;;;;;7.45;3.42;;;;;;;6.49;100.00;99120.84;10414665;28;20429;-78
2022/11/22 19:41:44;;;;;;;9.75;3.10;;;;;;;6.55;100.00;99114.53;10414997;28;20069;-75
2022/11/22 19:46:46;;;;;;;6.07;3.05;;;;;;;6.57;100.00;99117.88;10413904;28;20592;-73
2022/11/22 19:51:49;;;;;;;16.42;4.07;;;;;;;6.58;100.00;99114.34;10411818;28;20134;-76
2022/11/22 19:56:51;;;;;;;6.70;2.95;;;;;;;6.66;100.00;99117.38;10413808;28;20091;-76
2022/11/22 20:01:53;;;;;;;16.83;3.78;;;;;;;6.70;100.00;99121.47;10413733;28;20403;-77
2022/11/22 20:06:56;;;;;;;9.43;3.30;;;;;;;6.67;100.00;99113.84;10413602;28;20408;-76
2022/11/22 20:12:01;;;;;;;17.15;3.00;;;;;;;6.63;100.00;99114.94;10413439;28;20621;-75
2022/11/22 20:17:03;;;;;;;14.43;3.08;;;;;;;6.60;100.00;99128.06;10413020;28;20053;-77
2022/11/22 20:22:07;;;;;;;7.47;2.97;;;;;;;6.60;100.00;99130.66;10412838;28;20050;-77
2022/11/22 20:27:09;;;;;;;8.90;2.75;;;;;;;6.59;100.00;99131.56;10414426;28;20107;-79
2022/11/22 20:32:13;;;;;;;6.43;2.75;;;;;;;6.61;100.00;99142.72;10414337;28;20551;-77
2022/11/22 20:37:16;;;;;;;5.75;2.38;;;;;;;6.63;100.00;99143.44;10413986;28;20064;-78
2022/11/22 20:42:19;;;;;;;8.80;3.00;;;;;;;6.62;100.00;99146.13;10413712;28;20049;-77
2022/11/22 20:47:20;;;;;;;9.65;2.50;;;;;;;6.59;100.00;99136.75;10413918;28;20053;-75
2022/11/22 20:52:23;;;;;;;10.20;2.83;;;;;;;6.59;100.00;99134.16;10411901;28;20116;-77
2022/11/22 20:57:26;;;;;;;6.75;2.38;;;;;;;6.58;100.00;99137.69;10413559;28;20053;-76
2022/11/22 21:02:33;;;;;;;14.27;2.50;;;;;;;6.58;100.00;99140.28;10413437;28;20132;-74
2022/11/22 21:07:36;;;;;;;7.53;2.55;;;;;;;6.56;100.00;99136.91;10413607;28;20147;-75
2022/11/22 21:12:38;;;;;;;7.40;2.35;;;;;;;6.52;100.00;99143.19;10413024;28;20049;-74
2022/11/22 21:17:39;;;;;;;8.27;2.90;;;;;;;6.49;100.00;99151.13;10413630;28;20054;-73
2022/11/22 21:22:42;;;;;;;5.93;1.90;;;;;;;6.50;100.00;99153.63;10410729;28;20049;-74
2022/11/22 21:27:48;;;;;;;14.65;2.80;;;;;;;6.50;100.00;99158.81;10412649;28;20049;-73
2022/11/22 21:32:50;;;;;;;13.20;2.85;;;;;;;6.56;100.00;99168.03;10419312;28;20405;-72
2022/11/22 21:37:55;;;;;;;15.05;3.08;;;;;;;6.56;100.00;99165.44;10420160;28;20067;-70
2022/11/22 21:42:57;;;;;;;9.10;3.03;;;;;;;6.58;100.00;99171.38;10420099;28;20477;-73
2022/11/22 21:47:58;;;;;;;8.98;3.22;;;;;;;6.65;100.00;99172.75;10422295;28;20103;-74
2022/11/22 21:53:01;;;;;;;12.63;3.83;;;;;;;6.65;100.00;99172.75;10420687;28;20080;-71
2022/11/22 21:58:04;;;;;;;5.82;2.60;;;;;;;6.66;100.00;99182.19;10418998;28;20100;-75
2022/11/22 22:03:05;;;;;;;9.23;3.75;;;;;;;6.64;100.00;99189.19;10418979;28;20104;-70
2022/11/22 22:08:08;;;;;;;6.82;2.45;;;;;;;6.65;100.00;99192.63;10418697;28;20057;-73
2022/11/22 22:13:10;;;;;;;9.07;3.38;;;;;;;6.67;100.00;99191.63;10418523;28;20049;-72
2022/11/22 22:18:12;;;;;;;6.68;3.55;;;;;;;6.70;100.00;99194.06;10418506;28;20059;-72
2022/11/22 22:23:15;;;;;;;6.72;3.38;;;;;;;6.74;100.00;99196.50;10416887;28;20479;-72
2022/11/22 22:28:17;;;;;;;9.55;4.03;;;;;;;6.80;100.00;99214.31;10418054;28;20059;-70
2022/11/22 22:33:18;;;;;;;10.77;3.90;;;;;;;6.77;100.00;99211.91;10417805;28;20099;-73
2022/11/22 22:38:23;;;;;;;7.70;3.03;;;;;;;6.77;100.00;99204.13;10417779;28;20424;-73
2022/11/22 22:43:29;;;;;;;12.18;3.95;;;;;;;6.77;100.00;99217.91;10417166;28;20042;-72
2022/11/22 22:48:33;;;;;;;9.90;3.65;;;;;;;6.79;100.00;99223.00;10417731;28;20109;-70
2022/11/22 22:53:36;;;;;;;14.88;3.97;;;;;;;6.87;100.00;99222.63;10414800;28;20053;-69
2022/11/22 22:58:38;;;;;;;8.20;3.20;;;;;;;6.90;100.00;99228.47;10416409;28;20064;-70
2022/11/22 23:03:41;;;;;;;4.60;2.90;;;;;;;6.91;100.00;99235.31;10416489;28;20064;-71
2022/11/22 23:08:48;;;;;;;3.88;2.40;;;;;;;6.92;100.00;99247.38;10416439;28;20057;-72
2022/11/22 23:13:49;;;;;;;7.50;3.00;;;;;;;6.92;100.00;99257.72;10416126;28;20171;-70
2022/11/22 23:18:52;;;;;;;10.00;3.25;;;;;;;6.89;100.00;99263.09;10415806;28;20057;-70
2022/11/22 23:23:56;;;;;;;11.02;3.33;;;;;;;6.90;100.00;99264.78;10413842;28;20056;-70
2022/11/22 23:28:59;;;;;;;9.82;3.40;;;;;;;6.92;100.00;99281.06;10415788;28;20057;-72
2022/11/22 23:34:02;;;;;;;7.70;4.00;;;;;;;6.95;100.00;99277.50;10415037;28;20070;-73
2022/11/22 23:39:06;;;;;;;9.50;3.72;;;;;;;6.97;100.00;99280.84;10414982;28;20463;-71
2022/11/22 23:44:08;;;;;;;12.30;3.28;;;;;;;6.99;100.00;99285.97;10414744;28;20061;-71
2022/11/22 23:49:11;;;;;;;11.13;3.33;;;;;;;7.00;100.00;99290.22;10412837;28;20496;-69